Time;durP1;ratioP1;P1;durP2;ratioP2;P2;SDS_P1;SDS_P2;PMS_P1;PMS_P2;Temp;Humidity;BMP_temperature;BMP_pressure;BME280_temperature;BME280_humidity;BME280_pressure;Samples;Min_cycle;Max_cycle;Signal;HPM_P1;HPM_P2
2022/08/28 00:00:51;;;;;;;16.67;7.43;;;;;;;19.57;80.08;99909.33;1419459;92;21590;-73
2022/08/28 00:03:18;;;;;;;9.93;6.80;;;;;;;19.58;80.17;99906.41;1419696;91;21449;-73
2022/08/28 00:05:45;;;;;;;19.00;7.00;;;;;;;19.57;80.98;99906.64;1416971;91;21427;-73
2022/08/28 00:08:15;;;;;;;11.93;7.13;;;;;;;19.56;81.51;99904.98;1412310;91;22410;-74
2022/08/28 00:10:42;;;;;;;14.73;7.78;;;;;;;19.56;80.71;99900.45;1421746;91;21974;-74
2022/08/28 00:13:17;;;;;;;12.40;8.00;;;;;;;19.58;79.94;99901.03;1418672;91;21574;-73
2022/08/28 00:15:40;;;;;;;21.17;8.27;;;;;;;19.57;79.85;99912.83;1413912;91;22447;-73
2022/08/28 00:18:07;;;;;;;23.83;9.53;;;;;;;19.55;79.68;99906.03;1413067;91;21530;-73
2022/08/28 00:20:34;;;;;;;14.63;7.33;;;;;;;19.51;79.82;99904.84;1430875;89;21492;-73
2022/08/28 00:23:01;;;;;;;18.77;7.10;;;;;;;19.45;80.60;99909.70;1458556;89;22474;-73
2022/08/28 00:25:30;;;;;;;14.00;7.30;;;;;;;19.41;80.66;99907.17;1458079;89;21536;-73
2022/08/28 00:28:01;;;;;;;24.13;8.00;;;;;;;19.38;80.58;99905.74;1453168;89;21479;-73
2022/08/28 00:30:41;;;;;;;16.40;6.63;;;;;;;19.38;80.41;99905.74;1462350;89;21545;-74
2022/08/28 00:33:11;;;;;;;;;;;;;;;19.36;80.26;99904.64;1446178;89;21500;-74
2022/08/28 00:35:39;;;;;;;19.53;7.10;;;;;;;19.33;80.64;99902.39;1453630;89;20315;-73
2022/08/28 00:38:08;;;;;;;16.30;8.47;;;;;;;19.31;79.38;99904.98;1458949;89;22304;-73
2022/08/28 00:40:34;;;;;;;16.73;7.43;;;;;;;19.28;79.66;99904.08;1462186;89;22288;-72
2022/08/28 00:43:04;;;;;;;12.57;6.50;;;;;;;19.27;80.11;99903.23;1455046;89;21426;-73
2022/08/28 00:45:32;;;;;;;18.00;7.20;;;;;;;19.26;80.17;99901.60;1448316;89;22402;-73
2022/08/28 00:47:59;;;;;;;13.53;6.03;;;;;;;19.23;80.46;99896.67;1456073;89;21745;-72
2022/08/28 00:52:04;;;;;;;17.47;6.97;;;;;;;19.16;80.71;99893.20;1457153;89;21514;-73
2022/08/28 00:53:00;;;;;;;12.63;7.30;;;;;;;19.08;81.08;99896.98;1446159;89;21427;-73
2022/08/28 00:55:28;;;;;;;10.87;7.23;;;;;;;19.05;81.02;99892.58;1455203;89;21419;-74
2022/08/28 00:57:59;;;;;;;16.33;6.57;;;;;;;19.00;80.32;99893.20;1451054;89;22465;-73
2022/08/28 01:00:33;;;;;;;14.23;6.63;;;;;;;18.99;80.61;99890.23;1460955;89;21441;-74
2022/08/28 01:03:00;;;;;;;16.50;7.80;;;;;;;18.94;81.28;99884.16;1452558;89;22329;-74
2022/08/28 01:05:27;;;;;;;11.33;6.63;;;;;;;18.91;81.61;99889.14;1450372;89;21419;-74
2022/08/28 01:07:57;;;;;;;17.57;7.23;;;;;;;18.89;81.93;99892.03;1455614;89;21419;-74
2022/08/28 01:10:27;;;;;;;14.50;7.10;;;;;;;18.88;82.10;99898.96;1459296;89;22394;-73
2022/08/28 01:12:55;;;;;;;17.40;7.33;;;;;;;18.86;82.16;99891.11;1457129;89;21448;-73
2022/08/28 01:15:27;;;;;;;18.20;7.43;;;;;;;18.83;82.30;99892.07;1460488;89;21529;-72
2022/08/28 01:18:01;;;;;;;15.07;6.57;;;;;;;18.77;83.11;99883.03;1447285;89;21493;-73
2022/08/28 01:20:31;;;;;;;21.87;6.77;;;;;;;18.74;82.83;99885.32;1466271;89;22380;-74
2022/08/28 01:23:23;;;;;;;14.78;6.30;;;;;;;18.71;83.14;99891.90;1455622;89;21433;-73
2022/08/28 01:25:51;;;;;;;10.03;6.47;;;;;;;18.70;83.55;99884.88;1447704;89;22461;-72
2022/08/28 01:28:18;;;;;;;12.10;6.23;;;;;;;18.69;83.33;99884.58;1458612;89;22284;-73
2022/08/28 01:30:46;;;;;;;15.40;6.40;;;;;;;18.68;83.06;99895.83;1454973;89;21722;-73
2022/08/28 01:33:14;;;;;;;20.37;6.77;;;;;;;18.69;83.28;99896.64;1455129;89;21588;-73
2022/08/28 01:35:45;;;;;;;15.87;8.03;;;;;;;18.69;83.55;99897.45;1455046;89;22388;-72
2022/08/28 01:38:11;;;;;;;13.72;7.20;;;;;;;18.70;83.28;99906.31;1457972;89;21633;-73
2022/08/28 01:40:42;;;;;;;12.77;5.93;;;;;;;18.71;83.78;99906.64;1454820;89;21375;-73
2022/08/28 01:43:16;;;;;;;12.63;6.60;;;;;;;18.66;84.60;99899.75;1453586;89;21544;-74
2022/08/28 01:45:47;;;;;;;14.17;6.27;;;;;;;18.63;84.19;99904.20;1453558;89;21420;-73
2022/08/28 01:48:15;;;;;;;17.57;6.83;;;;;;;18.60;83.85;99900.08;1454861;89;21420;-73
2022/08/28 01:50:42;;;;;;;18.07;9.70;;;;;;;18.61;83.42;99904.92;1448770;89;21412;-72
2022/08/28 01:53:14;;;;;;;10.70;7.17;;;;;;;18.59;83.35;99898.97;1455133;89;21514;-73
2022/08/28 01:55:42;;;;;;;8.93;6.80;;;;;;;18.57;83.56;99903.71;1452038;89;21544;-73
2022/08/28 01:58:09;;;;;;;23.77;6.73;;;;;;;18.49;84.28;99904.23;1450475;89;21433;-73
2022/08/28 02:00:36;;;;;;;16.13;7.20;;;;;;;18.41;85.52;99895.13;1447627;89;22342;-72
2022/08/28 02:03:02;;;;;;;12.73;6.27;;;;;;;18.39;85.11;99894.50;1457970;89;21559;-72
2022/08/28 02:05:32;;;;;;;14.57;7.37;;;;;;;18.38;84.75;99895.52;1457966;89;22254;-73
2022/08/28 02:08:01;;;;;;;11.03;6.30;;;;;;;18.40;84.69;99897.48;1452547;89;21478;-73
2022/08/28 02:10:31;;;;;;;13.67;6.93;;;;;;;18.34;84.67;99891.63;1443547;89;21544;-73
2022/08/28 02:12:59;;;;;;;31.35;8.10;;;;;;;18.25;84.64;99888.88;1451639;89;22527;-73
2022/08/28 02:15:27;;;;;;;23.00;8.50;;;;;;;18.15;85.27;99889.83;1460125;89;21485;-73
2022/08/28 02:17:54;;;;;;;13.27;6.77;;;;;;;18.06;86.34;99894.59;1453861;89;21507;-72
2022/08/28 02:20:22;;;;;;;13.10;6.33;;;;;;;17.98;86.96;99892.97;1448499;89;21418;-73
2022/08/28 02:22:48;;;;;;;12.23;6.43;;;;;;;17.96;86.54;99892.34;1455652;89;21411;-72
2022/08/28 02:25:15;;;;;;;12.60;6.70;;;;;;;17.95;86.08;99893.87;1457635;89;22416;-73
2022/08/28 02:27:42;;;;;;;8.43;6.20;;;;;;;17.91;86.73;99894.00;1460968;89;21478;-73
2022/08/28 02:30:13;;;;;;;12.27;6.80;;;;;;;17.88;86.36;99894.42;1450651;89;21650;-74
2022/08/28 02:32:39;;;;;;;11.60;6.87;;;;;;;17.86;85.99;99895.95;1446839;89;21434;-74
2022/08/28 02:35:09;;;;;;;10.40;6.23;;;;;;;17.83;85.59;99892.36;1448481;89;21666;-74
2022/08/28 02:37:36;;;;;;;13.13;6.67;;;;;;;17.81;85.93;99894.44;1457026;89;21981;-75
2022/08/28 02:40:03;;;;;;;12.87;6.60;;;;;;;17.82;86.56;99892.06;1434777;89;21487;-74
2022/08/28 02:42:29;;;;;;;15.77;6.60;;;;;;;17.83;86.94;99898.23;1452044;89;21614;-74
2022/08/28 02:44:58;;;;;;;16.27;7.03;;;;;;;17.77;88.11;99894.50;1450729;89;22380;-73
2022/08/28 02:47:24;;;;;;;14.17;6.07;;;;;;;17.73;87.38;99895.95;1452850;89;21537;-74
2022/08/28 02:49:51;;;;;;;16.10;6.47;;;;;;;17.68;87.28;99895.23;1458338;89;21448;-73
2022/08/28 02:52:18;;;;;;;10.10;6.70;;;;;;;17.67;86.93;99900.80;1453577;89;21537;-73
2022/08/28 02:54:45;;;;;;;16.10;8.33;;;;;;;17.60;88.92;99893.58;1454498;89;21485;-73
2022/08/28 02:57:13;;;;;;;16.80;6.67;;;;;;;17.55;89.89;99893.39;1453772;89;21470;-73
2022/08/28 02:59:40;;;;;;;12.37;6.63;;;;;;;17.50;90.44;99894.52;1449942;89;22401;-73
2022/08/28 03:02:06;;;;;;;14.10;6.53;;;;;;;17.47;90.62;99901.63;1455986;89;21706;-74
2022/08/28 03:04:35;;;;;;;13.10;7.13;;;;;;;17.48;90.18;99901.91;1461063;89;21455;-72
2022/08/28 03:07:01;;;;;;;11.90;6.50;;;;;;;17.49;89.98;99902.73;1455926;89;21950;-72
2022/08/28 03:09:28;;;;;;;14.57;6.80;;;;;;;17.51;89.60;99900.16;1460701;89;21382;-73
2022/08/28 03:11:54;;;;;;;23.40;8.07;;;;;;;17.54;89.01;99903.77;1453325;89;22360;-72
2022/08/28 03:14:25;;;;;;;10.73;6.63;;;;;;;17.56;88.91;99908.41;1455493;89;21448;-73
2022/08/28 03:16:51;;;;;;;14.73;7.30;;;;;;;17.58;89.03;99911.70;1461054;89;21574;-73
2022/08/28 03:19:17;;;;;;;16.63;7.10;;;;;;;17.60;88.94;99913.64;1452745;89;21411;-73
2022/08/28 03:21:43;;;;;;;10.63;6.90;;;;;;;17.59;89.03;99918.70;1453689;89;21575;-73
2022/08/28 03:24:10;;;;;;;11.50;7.33;;;;;;;17.59;88.59;99921.89;1461889;89;21427;-74
2022/08/28 03:26:36;;;;;;;9.23;6.50;;;;;;;17.56;88.62;99925.80;1454798;89;21426;-73
2022/08/28 03:29:02;;;;;;;11.63;6.00;;;;;;;17.55;88.65;99922.83;1457103;89;21382;-73
2022/08/28 03:31:32;;;;;;;11.83;6.40;;;;;;;17.52;88.74;99919.22;1452534;89;21545;-73
2022/08/28 03:33:57;;;;;;;10.80;6.60;;;;;;;17.50;89.43;99921.79;1460455;89;21470;-73
2022/08/28 03:36:27;;;;;;;14.30;6.93;;;;;;;17.48;89.20;99920.64;1458756;89;22401;-73
2022/08/28 03:38:57;;;;;;;12.30;7.60;;;;;;;17.47;88.57;99920.86;1463516;89;21405;-73
2022/08/28 03:41:27;;;;;;;15.60;6.90;;;;;;;17.43;88.69;99920.95;1459617;89;21463;-73
2022/08/28 03:43:56;;;;;;;11.63;7.10;;;;;;;17.40;88.30;99920.84;1448269;89;21397;-73
2022/08/28 03:46:26;;;;;;;13.03;6.97;;;;;;;17.40;88.81;99926.19;1449187;89;22319;-73
2022/08/28 03:48:54;;;;;;;22.10;6.80;;;;;;;17.41;89.12;99926.52;1451024;89;21575;-73
2022/08/28 03:51:25;;;;;;;14.07;6.70;;;;;;;17.42;89.36;99928.67;1449550;89;21448;-73
2022/08/28 03:53:52;;;;;;;20.17;6.73;;;;;;;17.44;89.10;99928.78;1452364;89;21500;-73
2022/08/28 03:56:23;;;;;;;21.50;7.77;;;;;;;17.44;89.76;99935.47;1450461;89;21529;-73
2022/08/28 03:58:53;;;;;;;18.33;7.70;;;;;;;17.47;89.68;99944.42;1454761;89;21603;-73
2022/08/28 04:01:20;;;;;;;22.13;7.73;;;;;;;17.49;89.37;99946.39;1447239;89;21545;-74
2022/08/28 04:03:47;;;;;;;12.07;7.27;;;;;;;17.49;90.11;99945.05;1454003;89;21466;-73
2022/08/28 04:06:13;;;;;;;15.97;7.50;;;;;;;17.50;89.25;99945.34;1449191;89;21405;-72
2022/08/28 04:08:40;;;;;;;16.40;6.07;;;;;;;17.51;88.61;99948.33;1455545;89;21529;-73
2022/08/28 04:11:06;;;;;;;12.77;6.57;;;;;;;17.54;88.48;99946.58;1452914;89;21456;-73
2022/08/28 04:13:33;;;;;;;14.97;6.40;;;;;;;17.55;88.24;99942.89;1462957;89;21485;-73
2022/08/28 04:16:09;;;;;;;10.80;6.57;;;;;;;17.57;88.35;99939.99;1453977;89;21412;-73
2022/08/28 04:18:35;;;;;;;17.50;6.77;;;;;;;17.60;88.49;99946.27;1449447;89;22327;-73
2022/08/28 04:21:12;;;;;;;10.07;6.80;;;;;;;17.65;87.92;99948.34;1456671;89;21448;-73
2022/08/28 04:23:43;;;;;;;19.00;7.87;;;;;;;17.69;87.56;99942.88;1454314;89;21455;-73
2022/08/28 04:26:14;;;;;;;15.83;7.97;;;;;;;17.73;87.62;99945.47;1449699;89;21485;-73
2022/08/28 04:28:41;;;;;;;12.07;6.70;;;;;;;17.77;87.71;99948.03;1452762;89;21411;-72
2022/08/28 04:31:08;;;;;;;17.23;7.47;;;;;;;17.82;88.06;99949.61;1454500;89;21427;-74
2022/08/28 04:33:36;;;;;;;22.10;7.50;;;;;;;17.86;87.67;99941.46;1453443;89;21478;-73
2022/08/28 04:36:07;;;;;;;15.03;6.90;;;;;;;17.88;87.36;99942.09;1452924;89;21396;-73
2022/08/28 04:38:33;;;;;;;18.00;7.60;;;;;;;17.89;86.73;99947.73;1451642;89;21479;-73
2022/08/28 04:41:06;;;;;;;16.23;7.63;;;;;;;17.94;86.38;99956.50;1449773;89;21570;-73
2022/08/28 04:43:33;;;;;;;17.50;7.50;;;;;;;17.98;86.17;99951.02;1453867;89;21604;-72
2022/08/28 04:46:06;;;;;;;14.10;7.97;;;;;;;18.01;85.10;99950.12;1454215;89;22297;-72
2022/08/28 04:48:33;;;;;;;14.33;8.07;;;;;;;18.09;84.72;99951.73;1457058;89;21463;-73
2022/08/28 04:50:59;;;;;;;12.43;6.90;;;;;;;18.21;84.53;99957.28;1453072;89;21441;-73
2022/08/28 04:53:26;;;;;;;24.43;7.93;;;;;;;18.31;84.11;99957.69;1453729;89;22453;-72
2022/08/28 04:55:52;;;;;;;14.53;7.27;;;;;;;18.36;82.93;99961.09;1454121;89;21418;-73
2022/08/28 04:58:19;;;;;;;17.27;7.40;;;;;;;18.44;82.61;99959.49;1455789;89;21441;-73
2022/08/28 05:00:48;;;;;;;15.13;7.03;;;;;;;18.53;82.21;99962.77;1464746;89;21492;-73
2022/08/28 05:03:16;;;;;;;13.67;7.70;;;;;;;18.55;81.06;99959.36;1435588;89;21560;-74
2022/08/28 05:05:46;;;;;;;16.47;7.67;;;;;;;18.61;81.05;99953.16;1459412;89;21517;-72
2022/08/28 05:08:15;;;;;;;11.55;7.75;;;;;;;18.66;80.94;99958.19;1454972;89;22602;-73
2022/08/28 05:10:42;;;;;;;20.20;7.17;;;;;;;18.76;80.98;99965.83;1454889;89;21427;-72
2022/08/28 05:13:10;;;;;;;14.00;8.33;;;;;;;18.88;80.74;99966.80;1458309;89;21485;-73
2022/08/28 05:15:43;;;;;;;15.70;8.33;;;;;;;18.87;78.61;99969.20;1447779;89;21456;-73
2022/08/28 05:18:12;;;;;;;13.27;7.70;;;;;;;18.94;78.87;99969.97;1455728;89;21625;-73
2022/08/28 05:20:42;;;;;;;23.93;8.03;;;;;;;19.02;78.72;99976.11;1462451;89;22174;-73
2022/08/28 05:23:09;;;;;;;25.52;9.25;;;;;;;19.04;77.46;99977.55;1457526;89;21441;-73
2022/08/28 05:25:42;;;;;;;17.07;8.63;;;;;;;19.02;76.70;99976.11;1456543;89;21456;-73
2022/08/28 05:28:10;;;;;;;17.73;7.97;;;;;;;19.08;77.37;99977.96;1458298;89;22432;-72
2022/08/28 05:30:39;;;;;;;23.40;7.93;;;;;;;19.21;77.93;99983.23;1452211;89;22357;-73
2022/08/28 05:33:07;;;;;;;26.65;9.23;;;;;;;19.32;77.69;99978.53;1448679;89;22350;-72
2022/08/28 05:35:37;;;;;;;22.60;8.13;;;;;;;19.45;76.93;99980.82;1448765;89;21448;-73
2022/08/28 05:38:05;;;;;;;13.10;8.48;;;;;;;19.59;76.47;99977.01;1461936;89;21464;-73
2022/08/28 05:40:32;;;;;;;11.57;8.25;;;;;;;19.73;75.77;99978.59;1447121;89;21464;-73
2022/08/28 05:42:58;;;;;;;18.62;8.43;;;;;;;19.84;75.11;99976.54;1437682;90;22205;-73
2022/08/28 05:45:24;;;;;;;15.13;8.33;;;;;;;19.89;73.73;99979.11;1438362;90;21582;-73
2022/08/28 05:47:50;;;;;;;17.85;8.35;;;;;;;19.97;73.64;99980.17;1444720;90;21649;-73
2022/08/28 05:50:17;;;;;;;22.85;8.65;;;;;;;20.05;73.37;99989.27;1441614;90;22564;-73
2022/08/28 05:52:44;;;;;;;23.85;9.73;;;;;;;20.13;73.58;99989.00;1442497;90;21411;-73
2022/08/28 05:55:12;;;;;;;12.55;8.18;;;;;;;20.29;73.99;99998.38;1434379;89;22343;-72
2022/08/28 05:57:39;;;;;;;19.35;8.35;;;;;;;20.42;73.11;100000.09;1434753;89;22549;-74
2022/08/28 06:00:12;;;;;;;20.32;8.43;;;;;;;20.54;72.67;100007.73;1439103;89;21485;-73
2022/08/28 06:02:40;;;;;;;17.25;8.53;;;;;;;20.67;71.89;100013.52;1438233;90;21506;-72
2022/08/28 06:05:07;;;;;;;21.52;8.60;;;;;;;20.81;71.61;100017.70;1441241;90;21426;-73
2022/08/28 06:07:35;;;;;;;32.73;11.28;;;;;;;20.88;70.33;100022.98;1436294;89;21625;-72
2022/08/28 06:10:01;;;;;;;17.17;8.65;;;;;;;20.99;70.47;100026.80;1446624;90;22679;-72
2022/08/28 06:12:27;;;;;;;19.10;9.30;;;;;;;21.05;70.31;100025.36;1444223;89;21578;-73
2022/08/28 06:14:53;;;;;;;41.77;10.55;;;;;;;21.15;70.46;100027.01;1439199;90;21434;-71
2022/08/28 06:17:21;;;;;;;18.37;8.33;;;;;;;21.25;69.87;100032.37;1447847;90;21567;-72
2022/08/28 06:19:47;;;;;;;32.03;9.15;;;;;;;21.34;69.40;100034.50;1445272;90;21471;-73
2022/08/28 06:22:13;;;;;;;14.90;9.30;;;;;;;21.43;68.51;100036.38;1436468;89;21434;-73
2022/08/28 06:24:40;;;;;;;15.08;7.62;;;;;;;21.43;67.32;100025.62;1440878;90;22358;-73
2022/08/28 06:27:07;;;;;;;13.68;8.45;;;;;;;21.61;68.56;100030.15;1445240;90;21449;-73
2022/08/28 06:29:33;;;;;;;20.02;8.73;;;;;;;21.71;66.46;100029.58;1445068;90;21508;-73
2022/08/28 06:32:03;;;;;;;12.65;8.10;;;;;;;21.86;66.69;100022.69;1440041;90;21644;-73
2022/08/28 06:34:29;;;;;;;16.02;8.53;;;;;;;21.93;65.23;100025.30;1446004;90;21736;-74
2022/08/28 06:36:57;;;;;;;20.10;9.98;;;;;;;21.98;64.97;100036.20;1439021;90;22483;-73
2022/08/28 06:39:23;;;;;;;15.30;8.65;;;;;;;22.16;65.63;100039.86;1440837;89;21589;-73
2022/08/28 06:41:50;;;;;;;15.38;8.93;;;;;;;22.30;64.68;100031.87;1439819;89;22335;-73
2022/08/28 06:44:20;;;;;;;15.55;8.63;;;;;;;22.34;62.13;100031.68;1440899;89;22387;-73
2022/08/28 06:46:50;;;;;;;19.48;8.08;;;;;;;22.44;63.22;100030.58;1439816;89;21618;-73
2022/08/28 06:49:17;;;;;;;14.18;10.03;;;;;;;22.57;62.99;100029.50;1439540;90;21456;-73
2022/08/28 06:51:43;;;;;;;27.37;9.55;;;;;;;22.72;61.90;100024.95;1435132;90;21493;-73
2022/08/28 06:54:09;;;;;;;13.62;8.85;;;;;;;22.72;61.90;100024.95;1433096;90;21610;-73
2022/08/28 06:56:36;;;;;;;20.57;8.25;;;;;;;22.77;61.44;100023.73;1441551;90;23387;-73
2022/08/28 06:59:02;;;;;;;18.32;8.33;;;;;;;22.85;60.58;100028.76;1438895;89;21610;-73
2022/08/28 07:01:34;;;;;;;11.57;8.10;;;;;;;22.93;61.08;100028.39;1438424;89;21448;-72
2022/08/28 07:04:05;;;;;;;16.55;7.92;;;;;;;23.05;60.77;100028.92;1438847;90;22365;-72
2022/08/28 07:06:34;;;;;;;14.85;7.50;;;;;;;23.16;60.53;100044.23;1440378;90;21507;-73
2022/08/28 07:09:02;;;;;;;14.87;7.60;;;;;;;23.21;58.96;100047.04;1445399;89;21493;-73
2022/08/28 07:11:32;;;;;;;17.45;7.95;;;;;;;23.17;59.51;100037.80;1432694;90;21484;-73
2022/08/28 07:14:00;;;;;;;21.65;7.85;;;;;;;23.28;59.62;100042.34;1439851;90;21515;-73
2022/08/28 07:16:33;;;;;;;14.45;6.92;;;;;;;23.34;58.03;100038.67;1439512;90;21464;-73
2022/08/28 07:19:03;;;;;;;25.43;8.10;;;;;;;23.41;58.68;100042.03;1443222;90;22350;-73
2022/08/28 07:21:29;;;;;;;19.73;7.90;;;;;;;23.48;57.88;100041.05;1437620;90;22305;-73
2022/08/28 07:23:56;;;;;;;21.52;7.33;;;;;;;23.61;58.44;100036.72;1436983;90;22490;-73
2022/08/28 07:26:25;;;;;;;13.62;7.78;;;;;;;23.72;57.32;100037.76;1439216;90;21625;-73
2022/08/28 07:28:53;;;;;;;15.25;8.15;;;;;;;23.79;57.09;100036.52;1440211;90;21456;-74
2022/08/28 07:31:24;;;;;;;14.83;6.90;;;;;;;23.91;57.38;100034.28;1444767;90;21544;-73
2022/08/28 07:33:52;;;;;;;22.02;6.92;;;;;;;24.08;57.03;100031.05;1446055;90;21566;-74
2022/08/28 07:36:22;;;;;;;18.82;7.22;;;;;;;24.23;55.94;100035.36;1442635;90;21375;-73
2022/08/28 07:38:50;;;;;;;14.93;6.90;;;;;;;24.33;54.47;100036.84;1441223;86;21513;-72
2022/08/28 07:41:22;;;;;;;13.08;7.60;;;;;;;24.38;54.89;100024.48;1486764;88;21452;-73
2022/08/28 07:46:36;;;;;;;15.83;6.30;;;;;;;24.73;55.66;100033.11;1491999;88;21668;-73
2022/08/28 07:49:05;;;;;;;20.45;6.60;;;;;;;24.81;49.71;100030.52;1480490;88;22434;-74
2022/08/28 07:51:32;;;;;;;22.93;7.00;;;;;;;24.87;52.21;100025.98;1486096;87;21520;-75
2022/08/28 07:53:58;;;;;;;19.50;7.42;;;;;;;24.90;51.97;100023.58;1474249;88;21474;-76
2022/08/28 07:56:28;;;;;;;17.62;6.50;;;;;;;25.05;53.08;100031.61;1467814;88;21653;-75
2022/08/28 07:59:00;;;;;;;15.95;6.70;;;;;;;25.20;53.69;100028.59;1479200;88;21656;-75
2022/08/28 08:01:28;;;;;;;14.87;6.50;;;;;;;25.27;52.98;100031.09;1475924;87;21587;-75
2022/08/28 08:03:54;;;;;;;13.35;7.37;;;;;;;25.42;52.98;100027.72;1487562;88;21430;-75
2022/08/28 08:06:20;;;;;;;21.20;7.70;;;;;;;25.52;51.98;100023.77;1484594;87;22377;-74
2022/08/28 08:08:47;;;;;;;16.80;6.67;;;;;;;25.71;52.04;100022.03;1477182;88;21475;-75
2022/08/28 08:11:17;;;;;;;15.18;7.30;;;;;;;25.92;51.97;100021.15;1487632;88;21498;-75
2022/08/28 08:13:46;;;;;;;17.15;7.10;;;;;;;26.11;51.61;100019.67;1478991;88;21467;-75
2022/08/28 08:16:18;;;;;;;14.93;6.12;;;;;;;26.26;51.29;100020.86;1481790;88;22384;-75
2022/08/28 08:18:47;;;;;;;11.73;6.40;;;;;;;26.45;51.06;100020.72;1484580;87;21467;-75
2022/08/28 08:21:16;;;;;;;12.47;5.65;;;;;;;26.52;49.80;100018.61;1484412;88;21357;-76
2022/08/28 08:23:43;;;;;;;16.62;6.47;;;;;;;26.51;46.98;100015.62;1488596;87;22498;-74
2022/08/28 08:26:15;;;;;;;21.73;7.17;;;;;;;26.62;49.40;100013.79;1481665;87;21608;-75
2022/08/28 08:28:42;;;;;;;18.10;6.53;;;;;;;26.71;49.09;100020.34;1484882;88;21519;-75
2022/08/28 08:31:15;;;;;;;16.75;6.00;;;;;;;26.86;49.52;100028.28;1479738;87;22008;-75
2022/08/28 08:33:46;;;;;;;14.07;6.25;;;;;;;27.01;47.26;100026.42;1483629;88;23010;-76
2022/08/28 08:36:16;;;;;;;24.63;8.03;;;;;;;27.18;48.68;100029.51;1488341;87;22495;-75
2022/08/28 08:38:43;;;;;;;;;;;;;;;27.24;46.71;100025.72;1480165;87;21601;-74
2022/08/28 08:41:33;;;;;;;27.65;6.30;;;;;;;27.39;48.36;100029.84;1490199;88;20777;-74
2022/08/28 08:44:35;;;;;;;22.62;5.90;;;;;;;27.50;47.21;100033.93;1480198;87;22376;-75
2022/08/28 08:47:22;;;;;;;12.80;6.85;;;;;;;27.50;45.98;100028.49;1456093;89;21426;-76
2022/08/28 08:50:00;;;;;;;19.87;7.03;;;;;;;27.64;44.90;100044.55;1461338;89;23251;-75
2022/08/28 08:52:50;;;;;;;12.55;5.62;;;;;;;27.64;44.67;100045.91;1469153;89;21441;-74
2022/08/28 08:55:34;;;;;;;19.50;5.90;;;;;;;27.71;45.41;100049.20;1463662;89;21514;-75
2022/08/28 08:58:12;;;;;;;15.78;6.08;;;;;;;27.85;44.74;100050.84;1466265;89;21398;-75
2022/08/28 09:01:06;;;;;;;18.92;6.05;;;;;;;27.92;44.34;100051.95;1461069;89;21552;-75
2022/08/28 09:03:57;;;;;;;15.18;5.50;;;;;;;28.10;44.69;100045.95;1440871;91;21406;-75
2022/08/28 09:06:41;;;;;;;18.48;6.50;;;;;;;28.15;43.90;100044.59;1445342;89;21499;-75
2022/08/28 09:09:30;;;;;;;23.52;6.53;;;;;;;28.29;43.47;100039.42;1461853;89;22284;-76
2022/08/28 09:12:07;;;;;;;13.28;6.97;;;;;;;28.42;44.63;100039.41;1462203;89;21382;-75
2022/08/28 09:15:07;;;;;;;21.52;6.92;;;;;;;28.54;44.58;100037.20;1441048;89;22372;-75
2022/08/28 09:17:41;;;;;;;10.98;5.65;;;;;;;28.58;43.97;100037.48;1460068;89;22380;-75
2022/08/28 09:20:12;;;;;;;11.70;5.58;;;;;;;28.70;43.97;100040.16;1461226;89;22473;-75
2022/08/28 09:22:43;;;;;;;17.52;6.45;;;;;;;28.94;44.38;100042.24;1465056;89;22505;-75
2022/08/28 09:25:13;;;;;;;22.10;6.45;;;;;;;29.09;43.48;100040.02;1459009;89;21588;-75
2022/08/28 09:27:52;;;;;;;10.03;5.22;;;;;;;29.26;42.60;100039.11;1449888;89;21456;-75
2022/08/28 09:30:22;;;;;;;30.68;7.83;;;;;;;29.37;42.71;100046.69;1463642;89;21522;-75
2022/08/28 09:32:54;;;;;;;210.45;22.00;;;;;;;29.45;42.49;100041.46;1452369;89;22484;-77
2022/08/28 09:35:30;;;;;;;18.45;6.10;;;;;;;29.59;40.93;100040.84;1460735;89;21619;-76
2022/08/28 09:38:22;;;;;;;12.05;5.30;;;;;;;29.67;41.12;100038.35;1455033;89;21539;-76
2022/08/28 09:43:36;;;;;;;15.15;6.42;;;;;;;29.88;40.49;100043.64;1460846;89;21390;-77
2022/08/28 09:46:23;;;;;;;11.53;5.62;;;;;;;29.93;40.08;100040.88;1455988;89;21613;-77
2022/08/28 09:48:51;;;;;;;14.95;5.15;;;;;;;29.86;39.45;100041.74;1458584;89;21530;-77
2022/08/28 09:51:25;;;;;;;21.70;5.62;;;;;;;29.97;39.71;100031.57;1459124;89;21537;-77
2022/08/28 09:53:57;;;;;;;15.40;5.40;;;;;;;30.03;39.98;100040.78;1448959;89;21397;-77
2022/08/28 09:56:33;;;;;;;17.30;5.28;;;;;;;30.14;40.02;100035.49;1436660;91;21523;-77
2022/08/28 09:59:12;;;;;;;15.10;5.22;;;;;;;30.33;39.99;100037.55;1460445;89;21589;-77
2022/08/28 10:01:44;;;;;;;17.25;5.28;;;;;;;30.44;40.04;100036.34;1467383;89;21619;-77
2022/08/28 10:04:33;;;;;;;10.50;4.30;;;;;;;30.55;39.49;100027.47;1456243;89;21530;-76
2022/08/28 10:07:39;;;;;;;17.67;5.30;;;;;;;30.66;38.03;100028.17;1435299;91;21656;-77
2022/08/28 10:10:51;;;;;;;9.60;5.10;;;;;;;30.77;38.45;100025.03;1464203;89;21523;-77
2022/08/28 10:13:24;;;;;;;11.83;4.47;;;;;;;30.89;38.51;100024.64;1439045;91;21412;-78
2022/08/28 10:16:04;;;;;;;15.83;5.08;;;;;;;30.96;37.19;100027.03;1455432;89;21441;-78
2022/08/28 10:18:57;;;;;;;14.78;5.47;;;;;;;31.01;36.55;100020.11;1458811;89;22507;-78
2022/08/28 10:21:38;;;;;;;15.38;4.70;;;;;;;31.14;37.25;100018.03;1432556;91;21493;-78
2022/08/28 10:24:35;;;;;;;9.98;4.37;;;;;;;31.19;35.14;100022.06;1451226;89;21592;-78
2022/08/28 10:27:22;;;;;;;13.53;4.92;;;;;;;31.38;37.31;100017.98;1461554;89;21713;-77
2022/08/28 10:29:56;;;;;;;15.75;5.22;;;;;;;31.52;35.46;100023.52;1463171;88;22454;-78
2022/08/28 10:32:43;;;;;;;12.05;4.80;;;;;;;31.54;35.95;100017.77;1457642;88;21360;-78
2022/08/28 10:35:24;;;;;;;12.45;5.17;;;;;;;31.53;35.39;100016.93;1421876;89;21434;-76
2022/08/28 10:38:01;;;;;;;15.75;4.03;;;;;;;31.56;35.14;100028.64;1461231;89;22027;-76
2022/08/28 10:40:41;;;;;;;10.48;4.20;;;;;;;31.39;33.99;100029.20;1484413;87;22500;-76
2022/08/28 10:43:29;;;;;;;8.55;4.80;;;;;;;31.39;34.67;100031.93;1487211;87;21545;-76
2022/08/28 10:46:04;;;;;;;9.55;4.00;;;;;;;31.50;34.78;100030.39;1479927;87;21399;-79
2022/08/28 10:48:51;;;;;;;15.63;4.20;;;;;;;31.54;33.38;100023.23;1485141;87;22444;-78
2022/08/28 10:51:28;;;;;;;16.00;4.35;;;;;;;31.61;34.04;100023.66;1495640;87;21500;-78
2022/08/28 10:54:02;;;;;;;15.40;4.83;;;;;;;31.90;34.30;100024.82;1481085;87;21456;-78
2022/08/28 10:56:34;;;;;;;17.17;5.08;;;;;;;32.07;34.00;100025.66;1498227;87;21449;-78
2022/08/28 10:59:00;;;;;;;21.95;5.90;;;;;;;32.20;34.24;100021.34;1483507;87;21625;-77
2022/08/28 11:01:33;;;;;;;13.95;4.85;;;;;;;32.26;33.62;100023.67;1478429;87;22810;-78
2022/08/28 11:04:04;;;;;;;8.40;4.67;;;;;;;32.38;33.79;100021.01;1488447;87;21620;-78
2022/08/28 11:06:41;;;;;;;15.88;4.47;;;;;;;32.47;34.23;100025.50;1471167;87;21510;-77
2022/08/28 11:09:25;;;;;;;13.55;4.47;;;;;;;32.42;33.34;100015.16;1474903;87;21434;-77
2022/08/28 11:11:59;;;;;;;7.12;4.33;;;;;;;32.44;33.30;100018.42;1473077;87;21512;-78
2022/08/28 11:14:36;;;;;;;13.58;4.90;;;;;;;32.38;32.74;100014.97;1463493;87;21517;-77
2022/08/28 11:17:10;;;;;;;15.78;4.12;;;;;;;32.45;33.33;100012.66;1479824;87;22391;-74
2022/08/28 11:20:00;;;;;;;9.80;5.05;;;;;;;32.49;32.10;100015.62;1473887;87;21515;-75
2022/08/28 11:22:37;;;;;;;11.40;4.60;;;;;;;32.53;32.54;100014.69;1478898;87;21507;-76
2022/08/28 11:25:21;;;;;;;13.28;4.65;;;;;;;32.68;33.08;100019.05;1485204;87;22313;-76
2022/08/28 11:28:21;;;;;;;11.68;4.20;;;;;;;32.55;32.35;100014.40;1486394;87;22410;-76
2022/08/28 11:31:01;;;;;;;12.75;3.75;;;;;;;32.57;31.22;100012.98;1489473;87;21382;-77
2022/08/28 11:33:51;;;;;;;15.18;3.83;;;;;;;32.63;32.30;100010.95;1490031;87;21626;-76
2022/08/28 11:36:28;;;;;;;;;;;;;;;32.70;31.80;100007.23;1492634;87;21389;-76
2022/08/28 11:39:00;;;;;;;15.05;4.05;;;;;;;32.83;33.01;100004.25;1476545;88;20353;-76
2022/08/28 11:41:54;;;;;;;12.85;4.20;;;;;;;32.68;31.67;100006.72;1475454;88;21539;-76
2022/08/28 11:44:26;;;;;;;12.00;3.95;;;;;;;32.77;32.12;100007.66;1430996;90;21567;-76
2022/08/28 11:46:56;;;;;;;9.58;4.10;;;;;;;32.86;32.61;100001.42;1456986;88;21643;-77